Time;durP1;ratioP1;P1;durP2;ratioP2;P2;SDS_P1;SDS_P2;PMS_P1;PMS_P2;Temp;Humidity;BMP_temperature;BMP_pressure;BME280_temperature;BME280_humidity;BME280_pressure;Samples;Min_cycle;Max_cycle;Signal;HPM_P1;HPM_P2
2023/08/13 00:02:07;;;;;;;4.45;3.90;;;20.00;99.90;;;19.11;100.00;101125.06;4940643;28;20034;-75
2023/08/13 00:04:32;;;;;;;5.82;2.63;;;19.90;99.90;;;18.91;100.00;101125.75;4956593;28;20594;-75
2023/08/13 00:06:59;;;;;;;4.75;2.50;;;19.80;99.90;;;18.78;100.00;101125.81;4952837;28;20042;-74
2023/08/13 00:09:26;;;;;;;5.82;2.78;;;19.60;99.90;;;18.69;100.00;101132.66;4957238;28;20070;-75
2023/08/13 00:11:53;;;;;;;4.68;2.67;;;19.60;99.90;;;18.59;100.00;101121.81;4975674;28;20034;-75
2023/08/13 00:14:19;;;;;;;5.00;2.58;;;19.50;99.90;;;18.48;100.00;101134.25;4937291;28;20034;-75
2023/08/13 00:16:47;;;;;;;6.75;2.95;;;19.40;99.90;;;18.43;100.00;101134.59;4937423;28;20718;-75
2023/08/13 00:19:13;;;;;;;3.55;2.50;;;19.30;99.90;;;18.35;100.00;101147.63;4953377;28;20038;-75
2023/08/13 00:21:39;;;;;;;3.20;2.65;;;19.20;99.90;;;18.17;100.00;101142.66;4950868;28;20145;-75
2023/08/13 00:24:06;;;;;;;4.43;2.70;;;19.10;99.90;;;18.10;100.00;101145.88;4948249;28;20527;-75
2023/08/13 00:26:32;;;;;;;3.47;2.53;;;19.10;99.90;;;18.08;100.00;101153.13;4956347;28;20506;-75
2023/08/13 00:28:58;;;;;;;6.88;3.17;;;19.00;99.90;;;18.09;100.00;101152.16;4953112;28;20070;-75
2023/08/13 00:31:26;;;;;;;5.85;3.15;;;19.00;99.90;;;18.02;100.00;101143.75;4955045;28;20042;-75
2023/08/13 00:33:55;;;;;;;6.68;3.05;;;18.90;99.90;;;17.95;100.00;101151.34;4954516;28;20046;-75
2023/08/13 00:36:20;;;;;;;6.72;3.33;;;18.80;99.90;;;17.86;100.00;101154.66;4955666;28;20498;-75
2023/08/13 00:38:46;;;;;;;7.40;3.25;;;18.80;99.90;;;17.80;100.00;101155.91;4970428;28;20049;-75
2023/08/13 00:41:12;;;;;;;4.63;2.90;;;18.80;99.90;;;17.77;100.00;101150.78;4939088;28;20983;-76
2023/08/13 00:43:39;;;;;;;5.65;3.00;;;18.60;99.90;;;17.71;100.00;101151.22;4954487;28;20102;-76
2023/08/13 00:46:05;;;;;;;6.30;3.15;;;18.60;99.90;;;17.63;100.00;101159.75;4952180;28;20189;-75
2023/08/13 00:48:31;;;;;;;8.95;2.63;;;18.50;99.90;;;17.52;100.00;101143.66;4940261;28;20509;-75
2023/08/13 00:50:58;;;;;;;7.82;3.25;;;18.40;99.90;;;17.47;100.00;101152.91;4935383;28;20066;-75
2023/08/13 00:53:25;;;;;;;10.80;2.90;;;18.40;99.90;;;17.38;100.00;101149.91;4969844;28;20414;-75
2023/08/13 00:55:51;;;;;;;5.10;2.70;;;18.30;99.90;;;17.35;100.00;101159.94;4969219;28;20038;-75
2023/08/13 00:58:17;;;;;;;3.58;2.78;;;18.30;99.90;;;17.32;100.00;101161.00;4942897;28;20154;-76
2023/08/13 01:00:43;;;;;;;4.72;3.00;;;18.20;99.90;;;17.28;100.00;101158.63;4939996;28;20037;-75
2023/08/13 01:03:09;;;;;;;7.85;2.88;;;18.20;99.90;;;17.21;100.00;101158.19;4955961;28;20034;-76
2023/08/13 01:06:10;;;;;;;5.75;2.65;;;18.10;99.90;;;17.15;100.00;101163.97;4936579;28;20049;-75
2023/08/13 01:09:22;;;;;;;6.47;2.83;;;18.10;99.90;;;17.11;100.00;101168.63;4982233;28;20081;-75
2023/08/13 01:12:36;;;;;;;4.28;2.88;;;18.00;99.90;;;17.00;100.00;101169.34;4969213;28;20355;-75
2023/08/13 01:15:07;;;;;;;6.35;3.15;;;17.90;99.90;;;16.98;100.00;101162.44;4967627;28;20113;-75
2023/08/13 01:17:36;;;;;;;7.05;3.15;;;17.90;99.90;;;16.98;100.00;101179.22;4967012;28;20038;-75
2023/08/13 01:20:07;;;;;;;7.07;3.40;;;17.90;99.90;;;16.95;100.00;101179.44;4951695;28;20038;-75
2023/08/13 01:22:45;;;;;;;7.25;2.92;;;17.80;99.90;;;16.90;100.00;101172.72;4980699;28;20458;-75
2023/08/13 01:25:11;;;;;;;9.48;3.05;;;17.80;99.90;;;16.84;100.00;101175.78;4940107;28;20046;-75
2023/08/13 01:28:03;;;;;;;6.05;2.92;;;17.70;99.90;;;16.82;100.00;101175.88;4952338;28;20070;-75
2023/08/13 01:30:58;;;;;;;9.73;3.90;;;17.70;99.90;;;16.77;100.00;101169.97;4959217;28;20524;-76
2023/08/13 01:33:35;;;;;;;8.77;3.90;;;17.70;99.90;;;16.76;100.00;101182.44;4937698;28;20042;-75
2023/08/13 01:36:05;;;;;;;6.93;4.88;;;17.70;99.90;;;16.74;100.00;101186.16;4944619;28;20058;-75
2023/08/13 01:38:31;;;;;;;8.15;5.03;;;17.60;99.90;;;16.73;100.00;101189.75;4972182;28;20517;-75
2023/08/13 01:41:00;;;;;;;8.20;4.93;;;17.60;99.90;;;16.70;100.00;101190.81;4967878;28;20118;-75
2023/08/13 01:43:28;;;;;;;9.63;4.43;;;17.60;99.90;;;16.66;100.00;101189.28;4944175;28;20074;-76
2023/08/13 01:45:55;;;;;;;6.97;4.50;;;17.50;99.90;;;16.64;100.00;101195.66;4970476;28;20565;-75
2023/08/13 01:48:23;;;;;;;9.20;4.50;;;17.50;99.90;;;16.60;100.00;101206.47;4951553;28;20121;-75
2023/08/13 01:50:48;;;;;;;9.73;4.57;;;17.50;99.90;;;16.56;100.00;101204.97;4936000;28;20129;-75
2023/08/13 01:53:14;;;;;;;9.35;4.60;;;17.40;99.90;;;16.55;100.00;101213.06;4953643;28;20486;-76
2023/08/13 01:55:40;;;;;;;8.15;4.43;;;17.40;99.90;;;16.57;100.00;101211.16;4953297;28;20042;-75
2023/08/13 01:58:07;;;;;;;8.77;4.47;;;17.40;99.90;;;16.54;100.00;101217.53;4951102;28;20147;-75
2023/08/13 02:00:33;;;;;;;8.98;4.30;;;17.40;99.90;;;16.52;100.00;101210.59;4930733;28;20051;-75
2023/08/13 02:02:59;;;;;;;10.65;4.68;;;17.30;99.90;;;16.46;100.00;101214.50;4954145;28;20046;-75
2023/08/13 02:05:25;;;;;;;10.05;4.22;;;17.40;99.90;;;16.43;100.00;101224.47;4954278;28;20058;-75
2023/08/13 02:07:50;;;;;;;11.85;4.22;;;17.30;99.90;;;16.43;100.00;101225.31;4971037;28;20117;-75
2023/08/13 02:10:16;;;;;;;9.02;4.32;;;17.30;99.90;;;16.48;100.00;101228.56;4955851;28;20693;-75
2023/08/13 02:12:42;;;;;;;8.10;3.92;;;17.30;99.90;;;16.51;100.00;101227.50;4952512;28;20462;-75
2023/08/13 02:15:08;;;;;;;9.73;4.38;;;17.40;99.90;;;16.53;100.00;101229.09;4952123;28;20125;-75
2023/08/13 02:17:35;;;;;;;9.40;4.95;;;17.40;99.90;;;16.55;100.00;101235.19;4950697;28;20073;-76
2023/08/13 02:20:01;;;;;;;8.55;4.50;;;17.40;99.90;;;16.54;100.00;101232.59;4954278;28;20706;-75
2023/08/13 02:22:27;;;;;;;10.55;4.90;;;17.40;99.90;;;16.54;100.00;101237.91;4952226;28;20045;-76
2023/08/13 02:24:53;;;;;;;10.15;4.70;;;17.40;99.90;;;16.54;100.00;101241.47;4952777;28;20451;-76
2023/08/13 02:27:19;;;;;;;16.75;3.88;;;17.40;99.90;;;16.54;100.00;101237.91;4970709;28;20402;-76
2023/08/13 02:29:44;;;;;;;8.77;3.50;;;17.40;99.90;;;16.50;100.00;101244.38;4951423;28;20446;-75
2023/08/13 02:32:10;;;;;;;8.50;4.00;;;17.30;99.90;;;16.46;100.00;101240.19;4952836;28;20118;-76
2023/08/13 02:34:44;;;;;;;6.28;3.80;;;17.30;99.90;;;16.40;100.00;101244.13;4939562;28;20121;-75
2023/08/13 02:37:10;;;;;;;7.57;3.95;;;17.30;99.90;;;16.36;100.00;101246.09;4970514;28;20038;-76
2023/08/13 02:39:36;;;;;;;8.07;4.20;;;17.20;99.90;;;16.31;100.00;101250.03;4952784;28;20030;-76
2023/08/13 02:42:03;;;;;;;7.32;3.80;;;17.20;99.90;;;16.25;100.00;101242.44;4956839;28;20758;-76
2023/08/13 02:44:28;;;;;;;6.57;4.10;;;17.10;99.90;;;16.19;100.00;101244.50;4960357;28;20061;-75
2023/08/13 02:46:54;;;;;;;10.40;4.05;;;17.10;99.90;;;16.15;100.00;101250.09;4932331;28;20026;-76
2023/08/13 02:49:20;;;;;;;7.60;4.35;;;17.00;99.90;;;16.09;100.00;101243.38;4955380;28;20065;-75
2023/08/13 02:51:46;;;;;;;6.93;4.65;;;16.90;99.90;;;16.03;100.00;101251.72;4955889;28;20507;-76
2023/08/13 02:54:12;;;;;;;7.38;3.97;;;16.90;99.90;;;15.95;100.00;101251.31;4957040;28;20118;-76
2023/08/13 02:56:38;;;;;;;9.63;4.15;;;16.90;99.90;;;15.89;100.00;101259.66;4955730;28;20035;-76
2023/08/13 02:59:04;;;;;;;11.57;3.88;;;16.80;99.90;;;15.83;100.00;101260.91;4954309;28;20061;-75
2023/08/13 03:01:30;;;;;;;8.85;4.47;;;16.70;99.90;;;15.77;100.00;101263.94;4972722;28;20038;-76
2023/08/13 03:03:58;;;;;;;7.70;4.40;;;16.70;99.90;;;15.72;100.00;101264.19;4953570;28;20057;-75
2023/08/13 03:06:25;;;;;;;9.10;4.28;;;16.60;99.90;;;15.68;100.00;101264.41;4938762;28;20097;-75
2023/08/13 03:08:50;;;;;;;7.13;3.88;;;16.60;99.90;;;15.63;100.00;101262.03;4952120;28;20027;-75
2023/08/13 03:11:17;;;;;;;11.15;4.45;;;16.50;99.90;;;15.55;100.00;101266.94;4957302;28;20038;-75
2023/08/13 03:13:44;;;;;;;9.77;4.88;;;16.50;99.90;;;15.49;100.00;101273.47;4948740;28;20117;-75
2023/08/13 03:16:10;;;;;;;9.20;4.00;;;16.40;99.90;;;15.45;100.00;101274.59;4953198;28;20085;-75
2023/08/13 03:18:37;;;;;;;8.52;3.95;;;16.30;99.90;;;15.39;100.00;101283.75;4951585;28;20038;-75
2023/08/13 03:21:03;;;;;;;11.25;4.03;;;16.30;99.90;;;15.36;100.00;101286.59;4966105;28;20042;-76
2023/08/13 03:23:29;;;;;;;9.02;4.20;;;16.30;99.90;;;15.34;100.00;101287.66;4963940;28;20034;-76
2023/08/13 03:25:55;;;;;;;12.15;3.97;;;16.30;99.90;;;15.31;100.00;101279.84;4954531;28;20071;-75
2023/08/13 03:28:21;;;;;;;10.10;4.20;;;16.20;99.90;;;15.28;100.00;101280.03;4952383;28;20030;-75
2023/08/13 03:30:46;;;;;;;9.45;3.60;;;16.20;99.90;;;15.25;100.00;101277.53;4970628;28;20053;-76
2023/08/13 03:33:12;;;;;;;6.90;3.92;;;16.20;99.90;;;15.22;100.00;101285.69;4972920;28;20085;-76
2023/08/13 03:35:38;;;;;;;8.70;4.07;;;16.10;99.90;;;15.19;100.00;101294.69;4971982;28;20122;-76
2023/08/13 03:38:04;;;;;;;9.93;3.30;;;16.10;99.90;;;15.15;100.00;101288.69;4953566;28;20041;-76
2023/08/13 03:40:31;;;;;;;7.00;3.67;;;16.10;99.90;;;15.13;100.00;101290.56;4946938;28;20117;-75
2023/08/13 03:42:56;;;;;;;9.15;3.47;;;16.00;99.90;;;15.12;100.00;101298.63;4943445;28;20490;-76
2023/08/13 03:45:22;;;;;;;7.30;3.50;;;16.00;99.90;;;15.11;100.00;101299.56;4954648;28;20064;-75
2023/08/13 03:47:48;;;;;;;8.52;3.38;;;16.00;99.90;;;15.10;100.00;101304.00;4944087;28;20073;-75
2023/08/13 03:50:13;;;;;;;10.43;3.65;;;16.00;99.90;;;15.10;100.00;101306.66;4953398;28;20118;-75
2023/08/13 03:52:39;;;;;;;7.47;3.63;;;16.00;99.90;;;15.12;100.00;101307.44;4954601;28;20139;-75
2023/08/13 03:55:06;;;;;;;11.90;3.60;;;16.00;99.90;;;15.14;100.00;101307.31;4946334;28;20118;-75
2023/08/13 03:57:31;;;;;;;7.90;3.05;;;16.00;99.90;;;15.15;100.00;101309.06;4939137;28;20058;-76
2023/08/13 04:00:00;;;;;;;8.45;3.33;;;16.00;99.90;;;15.16;100.00;101313.41;4953336;28;20038;-76
2023/08/13 04:02:26;;;;;;;9.65;3.42;;;16.10;99.90;;;15.20;100.00;101312.28;4952486;28;20043;-76
2023/08/13 04:04:51;;;;;;;10.30;3.40;;;16.00;99.90;;;15.24;100.00;101313.84;4953598;28;20448;-75
2023/08/13 04:07:17;;;;;;;8.70;2.92;;;16.10;99.90;;;15.28;100.00;101314.53;4939059;28;20130;-75
2023/08/13 04:09:43;;;;;;;12.60;3.22;;;16.10;99.90;;;15.33;100.00;101310.69;4954124;28;20043;-75
2023/08/13 04:12:09;;;;;;;9.55;2.55;;;16.20;99.90;;;15.38;100.00;101315.72;4956478;28;20122;-75
2023/08/13 04:14:35;;;;;;;9.43;2.90;;;16.20;99.90;;;15.42;100.00;101311.94;4934156;28;20142;-75
2023/08/13 04:17:00;;;;;;;9.82;2.90;;;16.20;99.90;;;15.49;100.00;101312.44;4939595;28;20850;-75
2023/08/13 04:19:26;;;;;;;12.40;3.22;;;16.30;99.90;;;15.54;100.00;101310.38;4957472;28;20142;-75
2023/08/13 04:21:54;;;;;;;13.18;2.85;;;16.30;99.90;;;15.63;100.00;101317.78;4958655;28;20119;-75
2023/08/13 04:24:20;;;;;;;13.57;3.03;;;16.40;99.90;;;15.75;100.00;101317.09;4937418;28;20050;-76
2023/08/13 04:26:46;;;;;;;11.10;3.30;;;16.50;99.90;;;15.89;100.00;101320.75;4954457;28;20110;-75
2023/08/13 04:29:12;;;;;;;9.60;2.88;;;16.70;99.90;;;16.30;100.00;101330.69;4947758;28;20121;-75
2023/08/13 04:31:37;;;;;;;6.95;2.90;;;17.00;99.90;;;16.71;100.00;101330.75;4955888;28;20498;-76
2023/08/13 04:34:03;;;;;;;5.82;2.58;;;17.20;99.90;;;17.00;100.00;101341.41;4950567;28;20122;-76
2023/08/13 04:36:29;;;;;;;6.20;2.47;;;18.00;99.90;;;18.63;97.54;101347.31;4971982;28;20113;-76
2023/08/13 04:38:55;;;;;;;10.23;2.45;;;19.40;99.90;;;20.80;85.73;101357.00;4969599;28;20053;-76
2023/08/13 04:41:20;;;;;;;8.30;2.20;;;20.00;99.90;;;21.05;79.13;101358.56;4971497;28;20121;-76
2023/08/13 04:43:46;;;;;;;13.85;2.50;;;20.20;99.90;;;20.77;79.03;101344.72;4968713;28;20065;-75
2023/08/13 04:46:12;;;;;;;8.85;2.75;;;20.40;99.90;;;20.94;78.15;101353.25;4955148;28;20045;-76
2023/08/13 04:48:56;;;;;;;9.77;2.53;;;21.30;99.90;;;22.27;72.52;101354.72;4953144;28;20125;-76
2023/08/13 04:51:22;;;;;;;7.50;2.03;;;21.40;99.90;;;21.88;73.17;101352.59;4965608;28;20042;-75
2023/08/13 04:53:48;;;;;;;10.65;2.00;;;22.20;99.90;;;24.31;67.19;101370.41;4955311;28;20386;-76
2023/08/13 04:56:13;;;;;;;6.82;2.30;;;23.40;99.90;;;26.27;61.77;101390.66;4937183;28;20043;-76
2023/08/13 04:58:39;;;;;;;6.05;2.13;;;24.60;99.90;;;27.58;58.06;101404.78;4953155;28;20041;-76
2023/08/13 05:01:06;;;;;;;7.65;2.03;;;25.70;99.90;;;29.04;54.57;101417.47;4953104;28;20045;-76
2023/08/13 05:03:32;;;;;;;6.80;1.85;;;26.80;99.90;;;30.38;51.37;101438.00;4951425;28;20037;-75
2023/08/13 05:05:58;;;;;;;7.95;1.73;;;27.70;99.90;;;31.57;48.76;101442.56;4949297;28;20038;-76
2023/08/13 05:08:24;;;;;;;5.93;2.10;;;28.60;99.90;;;32.54;46.78;101454.81;4954589;28;20121;-76
2023/08/13 05:10:50;;;;;;;7.13;1.90;;;29.50;99.90;;;33.54;44.18;101464.31;4951929;28;20046;-76
2023/08/13 05:13:16;;;;;;;5.53;2.22;;;30.20;99.90;;;34.33;42.65;101476.47;4962688;28;20504;-76
2023/08/13 05:15:44;;;;;;;9.00;1.98;;;30.80;99.90;;;34.96;41.30;101497.84;4950775;28;20443;-76
2023/08/13 05:18:10;;;;;;;7.20;1.70;;;31.40;99.90;;;35.79;40.12;101510.81;4954386;28;20058;-78
2023/08/13 05:20:36;;;;;;;5.50;1.90;;;32.00;99.90;;;36.54;38.43;101519.09;4953906;28;20034;-76
2023/08/13 05:23:02;;;;;;;7.75;2.05;;;32.50;98.70;;;37.15;37.24;101527.59;4954485;28;20035;-76
2023/08/13 05:25:29;;;;;;;7.78;2.25;;;33.10;98.20;;;37.81;36.61;101534.19;4959660;28;20414;-76
2023/08/13 05:27:55;;;;;;;6.07;2.03;;;33.50;97.50;;;38.30;35.59;101539.59;4952912;28;20573;-76
2023/08/13 05:30:21;;;;;;;7.05;2.00;;;33.90;96.40;;;38.81;34.73;101553.75;4952487;28;20043;-76
2023/08/13 05:32:50;;;;;;;8.95;2.30;;;34.40;95.60;;;39.30;34.08;101555.13;4953053;28;20406;-76
2023/08/13 05:35:16;;;;;;;11.27;2.15;;;34.80;94.90;;;39.62;33.04;101565.75;4949114;28;20031;-76
2023/08/13 05:37:42;;;;;;;9.23;1.80;;;35.10;94.20;;;40.11;32.60;101574.41;4971803;28;20110;-76
2023/08/13 05:40:08;;;;;;;7.60;1.95;;;35.30;93.60;;;39.81;32.54;101568.28;4969545;28;20039;-76
2023/08/13 05:42:34;;;;;;;9.63;2.35;;;35.20;92.90;;;38.96;33.11;101565.13;4952219;28;20050;-76
2023/08/13 05:45:00;;;;;;;7.80;1.90;;;35.20;92.90;;;39.76;32.06;101569.88;4951133;28;20121;-75
2023/08/13 05:47:25;;;;;;;8.63;2.30;;;35.30;92.80;;;40.12;31.56;101570.56;4959442;28;20160;-76
2023/08/13 05:49:51;;;;;;;7.07;2.13;;;35.60;92.40;;;40.38;31.24;101569.09;4940187;28;20540;-77
2023/08/13 05:52:17;;;;;;;9.13;2.08;;;35.60;91.30;;;38.95;32.03;101561.56;4950773;28;20803;-75
2023/08/13 05:54:43;;;;;;;10.70;2.15;;;35.50;91.60;;;39.50;31.83;101568.53;4952914;28;20030;-75
2023/08/13 05:57:09;;;;;;;11.07;2.50;;;35.50;91.60;;;40.02;31.09;101566.78;4969730;28;20034;-75
2023/08/13 05:59:35;;;;;;;9.18;2.15;;;35.60;91.10;;;40.28;30.70;101573.59;4951231;28;20127;-76
2023/08/13 06:02:00;;;;;;;13.60;2.55;;;35.80;90.80;;;40.56;30.47;101568.03;4963721;28;20509;-75
2023/08/13 06:04:26;;;;;;;14.60;2.80;;;36.10;90.70;;;40.70;30.10;101570.44;4971673;28;20135;-76
2023/08/13 06:06:52;;;;;;;10.48;2.63;;;;;;;40.73;29.81;101575.47;4938153;28;20153;-75
2023/08/13 06:09:18;;;;;;;11.93;2.53;;;36.40;90.20;;;40.95;29.77;101570.84;4950401;28;20073;-76
2023/08/13 06:11:44;;;;;;;8.55;2.20;;;36.60;88.90;;;40.91;29.93;101580.72;4953458;28;20054;-75
2023/08/13 06:14:10;;;;;;;10.43;2.45;;;36.80;89.30;;;40.82;29.98;101584.16;4951220;28;20130;-75
2023/08/13 06:16:35;;;;;;;13.35;2.40;;;36.90;89.30;;;41.11;29.60;101573.78;4974250;28;20027;-75
2023/08/13 06:19:01;;;;;;;10.40;2.25;;;37.10;88.40;;;41.36;29.26;101578.81;4951814;28;20121;-75
2023/08/13 06:21:27;;;;;;;12.00;2.47;;;37.50;88.30;;;41.66;29.04;101577.56;4955822;28;20604;-75
2023/08/13 06:23:53;;;;;;;13.13;2.45;;;37.80;87.10;;;41.91;28.99;101577.81;4958816;28;20038;-75
2023/08/13 06:26:18;;;;;;;12.15;2.50;;;38.20;86.20;;;41.97;28.70;101575.97;4951775;28;20613;-75
2023/08/13 06:28:44;;;;;;;9.38;2.30;;;38.40;85.80;;;42.15;28.38;101570.06;4957326;28;20138;-75
2023/08/13 06:31:10;;;;;;;12.25;2.40;;;38.70;84.20;;;42.07;28.32;101570.53;4957004;28;20129;-75
2023/08/13 06:33:36;;;;;;;12.40;2.55;;;38.90;83.30;;;42.03;28.36;101566.63;4939092;28;20035;-75
2023/08/13 06:36:01;;;;;;;13.57;2.67;;;39.00;82.80;;;41.78;28.69;101569.94;4972178;28;20070;-75
2023/08/13 06:38:31;;;;;;;12.68;2.50;;;39.10;81.70;;;41.76;28.70;101572.13;4957107;28;20122;-75
2023/08/13 06:41:03;;;;;;;13.20;2.63;;;39.20;81.70;;;41.58;28.64;101560.34;4936981;28;20058;-76
2023/08/13 06:43:29;;;;;;;11.05;2.47;;;39.20;82.10;;;41.33;29.27;101558.06;4957798;28;20038;-75
2023/08/13 06:45:55;;;;;;;8.70;2.25;;;39.10;80.70;;;40.74;29.08;101549.53;4940599;28;20046;-75
2023/08/13 06:48:21;;;;;;;14.35;2.92;;;39.10;80.60;;;40.20;29.74;101544.50;4958342;28;20770;-75
2023/08/13 06:50:48;;;;;;;11.00;2.90;;;38.60;80.30;;;39.86;29.98;101532.59;4954511;28;20046;-75
2023/08/13 06:53:14;;;;;;;13.25;2.75;;;38.40;78.50;;;39.69;30.39;101521.50;4973389;28;20030;-75
2023/08/13 06:55:40;;;;;;;11.63;2.60;;;38.40;80.70;;;39.70;30.31;101523.16;4954903;28;20043;-76
2023/08/13 06:58:06;;;;;;;8.45;2.70;;;38.50;79.90;;;40.27;29.75;101525.84;4956076;28;20118;-76
2023/08/13 07:00:32;;;;;;;12.35;2.78;;;38.80;80.00;;;40.54;29.78;101522.41;4956552;28;20126;-75
2023/08/13 07:02:58;;;;;;;10.05;2.67;;;39.00;78.80;;;40.54;29.97;101525.19;4946301;28;20027;-75
2023/08/13 07:05:24;;;;;;;11.82;2.72;;;39.30;79.00;;;40.64;29.57;101524.50;4936750;28;20130;-75
2023/08/13 07:07:50;;;;;;;8.77;2.70;;;39.50;78.30;;;40.43;29.80;101517.84;4956804;28;20109;-75
2023/08/13 07:10:15;;;;;;;12.75;2.92;;;39.50;78.90;;;40.66;29.43;101525.91;4940188;28;20050;-75
2023/08/13 07:12:41;;;;;;;10.13;2.47;;;39.70;78.70;;;40.62;29.87;101515.66;4956163;28;20125;-73
2023/08/13 07:15:09;;;;;;;10.75;2.65;;;39.80;78.40;;;40.67;29.43;101521.22;4969354;28;20050;-73
2023/08/13 07:17:35;;;;;;;7.53;2.63;;;39.90;76.30;;;40.68;29.43;101525.69;4939608;28;20073;-73
2023/08/13 07:20:01;;;;;;;9.25;2.60;;;39.80;75.70;;;40.32;29.18;101523.19;4953162;28;20427;-72
2023/08/13 07:22:27;;;;;;;12.30;2.85;;;39.60;75.10;;;39.74;30.01;101518.81;4957784;28;20062;-73
2023/08/13 07:24:53;;;;;;;10.63;2.60;;;39.30;77.30;;;39.63;30.76;101512.28;4957631;28;20055;-73
2023/08/13 07:27:19;;;;;;;10.35;3.08;;;39.10;74.90;;;39.08;30.82;101504.56;4954104;28;20074;-73
2023/08/13 07:29:45;;;;;;;10.90;2.75;;;39.00;76.90;;;39.30;31.01;101508.31;4953064;28;20061;-73
2023/08/13 07:32:11;;;;;;;11.13;2.67;;;39.10;76.70;;;39.48;30.71;101498.22;4954772;28;20770;-73
2023/08/13 07:34:37;;;;;;;10.85;2.65;;;39.30;77.20;;;39.84;30.26;101507.19;4954256;28;20137;-73
2023/08/13 07:37:02;;;;;;;8.45;2.65;;;39.50;76.20;;;39.96;30.05;101510.72;4970803;28;20125;-73
2023/08/13 07:39:30;;;;;;;11.50;3.05;;;39.60;74.30;;;39.51;30.31;101506.84;4960292;28;20039;-73
2023/08/13 07:41:56;;;;;;;15.23;2.58;;;39.30;74.50;;;38.73;31.27;101509.00;4940554;28;20026;-73
2023/08/13 07:44:21;;;;;;;9.85;2.58;;;38.90;77.10;;;38.75;31.36;101497.78;4972759;28;20502;-73
2023/08/13 07:46:50;;;;;;;14.90;3.00;;;38.90;76.30;;;39.15;31.07;101499.75;4970080;28;20623;-73
2023/08/13 07:49:16;;;;;;;11.60;2.67;;;39.10;75.90;;;39.24;30.58;101509.28;4967047;28;20039;-73
2023/08/13 07:51:42;;;;;;;13.40;3.47;;;39.20;74.40;;;39.30;30.28;101511.06;4946627;28;20050;-73
2023/08/13 07:54:08;;;;;;;9.18;2.30;;;39.30;75.60;;;39.50;30.76;101499.63;4955159;28;20563;-73
2023/08/13 07:56:33;;;;;;;13.38;2.97;;;39.30;75.80;;;39.40;30.56;101507.72;4940026;28;20130;-72
2023/08/13 07:58:59;;;;;;;13.27;2.67;;;39.30;74.30;;;39.33;30.92;101510.59;4953410;28;20113;-73
2023/08/13 08:01:28;;;;;;;12.88;3.10;;;39.40;75.80;;;39.38;31.05;101505.19;4931103;28;20125;-74
2023/08/13 08:03:54;;;;;;;7.82;2.40;;;39.50;76.00;;;39.29;31.30;101501.16;4938704;28;20070;-73
2023/08/13 08:06:21;;;;;;;17.10;3.40;;;39.20;74.80;;;38.93;31.69;101492.09;4970952;28;20581;-73
2023/08/13 08:08:47;;;;;;;13.98;2.60;;;39.00;75.30;;;38.59;32.48;101484.75;4957836;28;20565;-73
2023/08/13 08:11:12;;;;;;;9.25;2.67;;;38.40;72.20;;;37.25;31.57;101474.91;4951964;28;20117;-73
2023/08/13 08:13:38;;;;;;;9.35;2.22;;;37.70;74.00;;;37.05;31.73;101477.88;4940475;28;20563;-73
2023/08/13 08:16:04;;;;;;;9.63;2.42;;;37.30;75.90;;;36.95;32.55;101471.00;4970542;28;20551;-72
2023/08/13 08:18:30;;;;;;;9.85;2.97;;;37.10;76.30;;;36.67;33.67;101465.22;4954977;28;20077;-73
2023/08/13 08:20:56;;;;;;;10.10;2.38;;;36.80;78.00;;;36.43;33.27;101462.25;4955644;28;20035;-73
2023/08/13 08:23:21;;;;;;;12.20;2.53;;;36.70;77.10;;;36.55;33.81;101454.97;4953917;28;20093;-72
2023/08/13 08:25:47;;;;;;;14.30;2.50;;;36.60;75.40;;;36.52;32.79;101466.41;4938120;28;20038;-73
2023/08/13 08:28:13;;;;;;;9.27;2.20;;;36.40;74.40;;;36.02;33.18;101466.38;4976932;28;20680;-73
2023/08/13 08:30:40;;;;;;;13.00;3.80;;;36.10;74.00;;;35.22;33.49;101460.53;4969846;28;20121;-72
2023/08/13 08:33:06;;;;;;;13.15;3.80;;;35.50;74.80;;;34.82;34.21;101449.72;4971999;28;20082;-73
2023/08/13 08:35:33;;;;;;;14.43;3.40;;;35.10;76.20;;;34.27;34.21;101447.25;4954338;28;20041;-72
2023/08/13 08:37:59;;;;;;;10.73;3.25;;;34.60;77.50;;;33.92;35.45;101433.75;4945001;28;20578;-72
2023/08/13 08:40:26;;;;;;;9.43;2.72;;;34.10;76.80;;;33.18;35.70;101416.34;4944337;28;20077;-73
2023/08/13 08:42:52;;;;;;;11.73;2.80;;;33.60;77.80;;;32.68;36.35;101413.78;4970983;28;20034;-73
2023/08/13 08:45:19;;;;;;;11.73;3.17;;;33.00;77.90;;;32.12;36.97;101408.34;4943786;28;20058;-73
2023/08/13 08:47:47;;;;;;;12.60;3.25;;;32.40;78.60;;;31.81;37.28;101397.78;4958688;28;20038;-73
2023/08/13 08:50:13;;;;;;;11.80;2.70;;;32.00;79.20;;;31.31;37.71;101392.22;4949836;28;20049;-72
2023/08/13 08:52:40;;;;;;;10.38;2.35;;;31.40;80.80;;;30.90;38.84;101397.38;4939399;28;20053;-73
2023/08/13 08:55:06;;;;;;;9.57;2.28;;;31.00;80.90;;;30.34;39.44;101386.94;4950855;28;20054;-72
2023/08/13 08:57:32;;;;;;;8.18;2.13;;;30.40;82.30;;;29.67;40.22;101372.22;4968560;28;20092;-73
2023/08/13 08:59:59;;;;;;;12.43;2.50;;;30.00;84.40;;;29.12;42.82;101368.69;4951116;28;20943;-73
2023/08/13 09:02:25;;;;;;;13.13;2.55;;;29.60;89.20;;;29.02;45.02;101366.16;4938520;28;20042;-72
2023/08/13 09:04:51;;;;;;;8.32;2.20;;;29.50;90.10;;;29.15;43.94;101372.91;4969396;28;20088;-73
2023/08/13 09:07:17;;;;;;;8.45;2.20;;;29.40;87.50;;;28.91;43.55;101377.38;4962783;28;20406;-73
2023/08/13 09:09:48;;;;;;;10.20;1.65;;;29.40;90.40;;;28.96;45.05;101374.16;4954458;28;20043;-73
2023/08/13 09:12:15;;;;;;;12.75;2.50;;;29.10;89.10;;;28.68;44.21;101366.47;4939109;28;20566;-72
2023/08/13 09:14:41;;;;;;;9.52;2.05;;;29.20;90.60;;;28.83;44.91;101363.88;4940247;28;20042;-72
2023/08/13 09:17:14;;;;;;;9.73;2.08;;;29.20;90.60;;;28.47;45.32;101358.91;4948151;28;20514;-73
2023/08/13 09:19:39;;;;;;;9.68;2.17;;;28.90;90.10;;;28.38;44.71;101368.03;4985103;28;20049;-73
2023/08/13 09:22:07;;;;;;;8.30;2.10;;;28.80;90.40;;;28.33;45.41;101365.88;4959794;28;20038;-73
2023/08/13 09:24:38;;;;;;;11.40;2.42;;;28.80;90.30;;;28.55;44.98;101380.59;4969642;28;20031;-72
2023/08/13 09:27:10;;;;;;;9.90;2.50;;;28.80;90.20;;;28.48;44.49;101381.41;4969010;28;20034;-72
2023/08/13 09:29:38;;;;;;;11.55;2.28;;;28.80;90.20;;;28.48;44.90;101373.28;4952594;28;20577;-73
2023/08/13 09:32:07;;;;;;;5.78;1.70;;;28.80;90.20;;;28.38;45.07;101373.47;4967795;28;20088;-73
2023/08/13 09:34:36;;;;;;;8.98;2.40;;;28.80;90.70;;;28.53;45.03;101366.38;4956652;28;20034;-73
2023/08/13 09:37:06;;;;;;;7.88;2.40;;;28.80;90.10;;;28.44;43.83;101364.66;4958793;28;20034;-73
2023/08/13 09:39:33;;;;;;;11.38;2.60;;;28.70;89.50;;;28.20;44.33;101362.84;4953102;28;20061;-72
2023/08/13 09:42:05;;;;;;;10.40;2.33;;;28.50;90.30;;;28.06;45.20;101367.09;4958387;28;20122;-75
2023/08/13 09:44:31;;;;;;;7.65;2.42;;;28.40;90.50;;;27.88;45.32;101364.56;4956768;28;20030;-75
2023/08/13 09:47:03;;;;;;;12.02;2.90;;;28.20;90.60;;;27.70;45.81;101361.16;4941471;28;20068;-75
2023/08/13 09:49:34;;;;;;;10.25;2.85;;;28.10;91.00;;;27.61;46.44;101360.31;4973089;28;20037;-75
2023/08/13 09:52:08;;;;;;;11.27;2.60;;;28.00;91.30;;;27.49;46.51;101354.38;4966193;28;20034;-75
2023/08/13 09:54:49;;;;;;;9.43;2.22;;;28.00;91.50;;;27.54;46.26;101357.44;4958608;28;20113;-75
2023/08/13 09:57:17;;;;;;;9.95;2.72;;;28.00;91.20;;;27.38;46.47;101346.59;4993080;28;20050;-75
2023/08/13 09:59:44;;;;;;;11.27;2.38;;;27.90;91.10;;;27.50;45.85;101353.38;4959314;28;20045;-75
2023/08/13 10:02:18;;;;;;;10.40;2.33;;;27.90;91.50;;;27.42;46.67;101353.34;4942689;28;20552;-75
2023/08/13 10:04:50;;;;;;;69.82;4.55;;;27.90;92.20;;;27.47;48.12;101350.16;4962796;28;20049;-75
2023/08/13 10:07:18;;;;;;;13.50;2.58;;;27.90;92.70;;;27.59;48.45;101360.47;4939724;28;20035;-75
2023/08/13 10:09:46;;;;;;;12.57;2.72;;;28.10;92.70;;;27.71;47.95;101358.31;4957978;28;20126;-75